createdAt,value
2023-01-13T00:01:26.407Z,38.50
2023-01-13T00:04:29.928Z,38.10
2023-01-13T00:07:33.388Z,40.15
2023-01-13T00:10:38.709Z,40.03
2023-01-13T00:13:42.084Z,40.10
2023-01-13T00:16:45.559Z,38.03
2023-01-13T00:19:49.078Z,37.38
2023-01-13T00:22:52.462Z,35.70
2023-01-13T00:26:00.987Z,37.87
2023-01-13T00:29:04.346Z,38.90
2023-01-13T00:32:07.728Z,39.15
2023-01-13T00:35:11.064Z,37.72
2023-01-13T00:38:14.662Z,37.00
2023-01-13T00:41:26.401Z,37.47
2023-01-13T00:44:29.806Z,36.15
2023-01-13T00:47:33.312Z,32.38
2023-01-13T00:50:36.939Z,38.72
2023-01-13T00:53:43.351Z,42.25
2023-01-13T00:56:46.759Z,38.43
2023-01-13T00:59:50.221Z,43.00
2023-01-13T01:02:53.590Z,39.97
2023-01-13T01:05:58.016Z,39.20
2023-01-13T01:09:01.424Z,39.95
2023-01-13T01:12:05.006Z,40.33
2023-01-13T01:15:10.157Z,44.45
2023-01-13T01:18:13.641Z,39.83
2023-01-13T01:21:18.068Z,47.42
2023-01-13T01:24:21.575Z,41.08
2023-01-13T01:27:24.985Z,48.53
2023-01-13T01:30:28.569Z,40.85
2023-01-13T01:33:32.274Z,51.15
2023-01-13T01:36:36.673Z,43.22
2023-01-13T01:39:40.039Z,44.70
2023-01-13T01:43:01.995Z,45.60
2023-01-13T01:46:05.724Z,48.53
2023-01-13T01:49:31.573Z,46.20
2023-01-13T01:52:39.717Z,47.85
2023-01-13T01:55:43.461Z,48.08
2023-01-13T01:58:51.185Z,45.53
2023-01-13T02:01:54.941Z,42.08
2023-01-13T02:04:59.340Z,42.33
2023-01-13T02:08:04.461Z,42.92
2023-01-13T02:11:28.337Z,40.92
2023-01-13T02:14:34.466Z,40.37
2023-01-13T02:17:52.830Z,35.75
2023-01-13T02:21:00.336Z,31.55
2023-01-13T02:24:56.391Z,40.88
2023-01-13T02:29:09.090Z,40.05
2023-01-13T02:32:40.629Z,36.00
2023-01-13T02:35:59.023Z,39.25
2023-01-13T02:39:14.357Z,41.47
2023-01-13T02:42:59.140Z,38.17
2023-01-13T02:46:28.399Z,35.47
2023-01-13T02:49:38.233Z,35.50
2023-01-13T02:52:43.974Z,28.48
2023-01-13T02:55:51.742Z,23.33
2023-01-13T02:58:57.812Z,17.40
2023-01-13T03:02:04.172Z,17.42
2023-01-13T03:05:08.231Z,16.37
2023-01-13T03:08:23.585Z,19.52
2023-01-13T03:11:34.916Z,19.17
2023-01-13T03:14:44.168Z,21.60
2023-01-13T03:18:06.037Z,16.60
2023-01-13T03:21:14.441Z,16.83
2023-01-13T03:24:37.968Z,21.25
2023-01-13T03:27:50.282Z,20.90
2023-01-13T03:31:09.391Z,21.70
2023-01-13T03:34:17.343Z,21.83
2023-01-13T03:37:26.852Z,22.60
2023-01-13T03:40:36.898Z,22.88
2023-01-13T03:44:09.685Z,28.27
2023-01-13T03:47:47.125Z,26.20
2023-01-13T03:50:57.579Z,19.08
2023-01-13T03:54:07.453Z,20.57
2023-01-13T03:57:14.963Z,24.42
2023-01-13T04:00:21.536Z,26.98
2023-01-13T04:03:54.079Z,33.25
2023-01-13T04:07:15.428Z,27.95
2023-01-13T04:10:35.803Z,21.00
2023-01-13T04:13:43.345Z,25.85
2023-01-13T04:16:48.415Z,25.10
2023-01-13T04:19:51.866Z,23.98
2023-01-13T04:22:55.357Z,25.02
2023-01-13T04:25:58.842Z,23.60
2023-01-13T04:29:02.268Z,22.67
2023-01-13T04:32:06.890Z,20.15
2023-01-13T04:35:10.760Z,21.65
2023-01-13T04:38:20.435Z,25.35
2023-01-13T04:41:23.873Z,21.93
2023-01-13T04:44:27.659Z,22.55
2023-01-13T04:47:31.156Z,41.80
2023-01-13T04:50:34.963Z,24.08
2023-01-13T04:53:38.415Z,23.05
2023-01-13T04:56:42.011Z,22.53
2023-01-13T04:59:45.571Z,26.42
2023-01-13T05:02:52.341Z,30.23
2023-01-13T05:05:55.809Z,25.95
2023-01-13T05:08:59.405Z,25.58
2023-01-13T05:12:21.591Z,28.27
2023-01-13T05:15:43.337Z,29.40
2023-01-13T05:18:46.958Z,29.83
2023-01-13T05:22:09.063Z,29.98
2023-01-13T05:25:21.781Z,28.88
2023-01-13T05:28:25.605Z,26.07
2023-01-13T05:31:29.133Z,26.65
2023-01-13T05:34:33.462Z,29.08
2023-01-13T05:37:36.998Z,28.30
2023-01-13T05:40:59.764Z,29.13
2023-01-13T05:44:03.354Z,22.67
2023-01-13T05:47:06.835Z,28.65
2023-01-13T05:50:11.335Z,30.02
2023-01-13T05:53:15.104Z,30.67
2023-01-13T05:56:18.697Z,26.55
2023-01-13T05:59:22.544Z,32.13
2023-01-13T06:02:26.762Z,27.02
2023-01-13T06:05:30.301Z,32.63
2023-01-13T06:08:33.967Z,27.90
2023-01-13T06:11:37.526Z,29.10
2023-01-13T06:14:41.087Z,28.87
2023-01-13T06:17:44.605Z,35.53
2023-01-13T06:20:48.333Z,34.53
2023-01-13T06:23:51.933Z,27.65
2023-01-13T06:26:55.578Z,22.60
2023-01-13T06:29:59.155Z,20.03
2023-01-13T06:33:08.165Z,28.00
2023-01-13T06:36:16.111Z,24.85
2023-01-13T06:39:25.460Z,21.38
2023-01-13T06:42:51.981Z,21.48
2023-01-13T06:45:56.915Z,20.37
2023-01-13T06:49:00.727Z,20.42
2023-01-13T06:52:04.717Z,25.80
2023-01-13T06:55:08.406Z,29.08
2023-01-13T06:58:12.227Z,28.98
2023-01-13T07:01:16.139Z,24.93
2023-01-13T07:04:21.460Z,31.17
2023-01-13T07:07:24.993Z,32.10
2023-01-13T07:10:28.662Z,21.38
2023-01-13T07:13:53.975Z,22.70
2023-01-13T07:17:01.021Z,21.63
2023-01-13T07:20:04.926Z,22.08
2023-01-13T07:23:08.802Z,21.83
2023-01-13T07:26:12.658Z,22.05
2023-01-13T07:29:16.141Z,21.33
2023-01-13T07:32:19.938Z,20.03
2023-01-13T07:35:23.674Z,25.92
2023-01-13T07:38:28.282Z,41.55
2023-01-13T07:41:50.280Z,75.43
2023-01-13T07:44:55.164Z,27.73
2023-01-13T07:48:00.282Z,29.67
2023-01-13T07:51:09.223Z,22.95
2023-01-13T07:54:12.933Z,29.23
2023-01-13T07:57:16.828Z,24.25
2023-01-13T08:00:37.008Z,23.52
2023-01-13T08:03:44.459Z,24.53
2023-01-13T08:06:49.182Z,23.90
2023-01-13T08:09:54.560Z,26.40
2023-01-13T08:13:17.764Z,26.30
2023-01-13T08:16:21.335Z,23.33
2023-01-13T08:19:24.913Z,47.63
2023-01-13T08:22:28.359Z,28.13
2023-01-13T08:25:32.477Z,25.67
2023-01-13T08:28:36.666Z,22.45
2023-01-13T08:31:40.893Z,22.35
2023-01-13T08:34:44.799Z,22.33
2023-01-13T08:37:48.889Z,21.33
2023-01-13T08:40:52.800Z,19.20
2023-01-13T08:43:57.281Z,21.85
2023-01-13T08:47:01.001Z,24.25
2023-01-13T08:50:05.303Z,17.73
2023-01-13T08:53:08.899Z,19.02
2023-01-13T08:56:14.707Z,20.10
2023-01-13T08:59:19.954Z,16.60
2023-01-13T09:02:25.824Z,17.52
2023-01-13T09:05:29.535Z,15.97
2023-01-13T09:08:33.180Z,17.45
2023-01-13T09:11:59.081Z,13.65
2023-01-13T09:15:04.015Z,16.08
2023-01-13T09:18:07.637Z,17.58
2023-01-13T09:21:12.603Z,17.67
2023-01-13T09:24:17.868Z,16.42
2023-01-13T09:27:23.713Z,15.32
2023-01-13T09:30:27.316Z,13.95
2023-01-13T09:33:49.703Z,16.30
2023-01-13T09:36:54.262Z,28.30
2023-01-13T09:39:57.913Z,25.75
2023-01-13T09:43:42.688Z,19.40
2023-01-13T09:46:57.311Z,16.65
2023-01-13T09:50:15.736Z,15.93
2023-01-13T09:53:43.900Z,18.87
2023-01-13T09:56:49.239Z,13.02
2023-01-13T09:59:52.974Z,13.23
2023-01-13T10:03:21.637Z,13.60
2023-01-13T10:06:35.172Z,12.63
2023-01-13T10:09:51.711Z,13.73
2023-01-13T10:13:14.539Z,19.92
2023-01-13T10:16:42.547Z,15.00
2023-01-13T10:19:54.413Z,14.07
2023-01-13T10:23:24.089Z,13.48
2023-01-13T10:26:56.867Z,13.90
2023-01-13T10:30:11.084Z,14.20
2023-01-13T10:33:20.872Z,12.98
2023-01-13T10:36:24.418Z,11.35
2023-01-13T10:39:28.617Z,15.15
2023-01-13T10:42:32.346Z,14.40
2023-01-13T10:45:35.911Z,15.32
2023-01-13T10:48:42.087Z,15.18
2023-01-13T10:51:52.541Z,15.35
2023-01-13T10:58:49.123Z,16.67
2023-01-13T11:02:25.281Z,23.73
2023-01-13T11:05:33.679Z,16.25
2023-01-13T11:08:46.817Z,29.45
2023-01-13T11:11:55.681Z,23.52
2023-01-13T11:15:03.257Z,19.00
2023-01-13T11:18:25.152Z,15.60
2023-01-13T11:21:35.889Z,17.33
2023-01-13T11:24:50.779Z,17.77
2023-01-13T11:28:01.088Z,23.95
2023-01-13T11:32:06.168Z,28.00
2023-01-13T11:35:23.719Z,19.52
2023-01-13T11:38:38.608Z,17.63
2023-01-13T11:42:12.556Z,18.27
2023-01-13T11:45:37.827Z,18.63
2023-01-13T11:48:44.971Z,18.47
2023-01-13T11:51:59.249Z,20.15
2023-01-13T11:55:22.628Z,19.33
2023-01-13T11:58:53.700Z,19.38
2023-01-13T12:02:17.023Z,24.25
2023-01-13T12:05:28.255Z,20.43
2023-01-13T12:08:50.610Z,23.23
2023-01-13T12:12:22.989Z,22.45
2023-01-13T12:16:03.473Z,19.48
2023-01-13T12:19:25.570Z,21.80
2023-01-13T12:22:35.896Z,20.87
2023-01-13T12:25:47.476Z,26.75
2023-01-13T12:29:19.227Z,22.13
2023-01-13T12:32:36.610Z,25.98
2023-01-13T12:35:47.811Z,22.80
2023-01-13T12:39:15.391Z,27.13
2023-01-13T12:43:12.999Z,23.67
2023-01-13T12:46:22.730Z,22.35
2023-01-13T12:49:34.948Z,29.25
2023-01-13T12:52:45.807Z,22.42
2023-01-13T12:55:53.390Z,39.27
2023-01-13T12:59:32.396Z,33.15
2023-01-13T13:03:00.490Z,36.03
2023-01-13T13:06:18.033Z,30.27
2023-01-13T13:09:35.782Z,29.40
2023-01-13T13:13:00.872Z,31.30
2023-01-13T13:16:44.974Z,28.10
2023-01-13T13:19:50.075Z,39.30
2023-01-13T13:23:01.551Z,43.92
2023-01-13T13:26:26.541Z,32.97
2023-01-13T13:29:53.369Z,37.30
2023-01-13T13:33:13.356Z,34.22
2023-01-13T13:36:46.554Z,29.48
2023-01-13T13:40:09.017Z,33.92
2023-01-13T13:43:34.619Z,29.23
2023-01-13T13:46:48.848Z,33.83
2023-01-13T13:49:54.682Z,31.02
2023-01-13T13:53:08.855Z,28.88
2023-01-13T13:56:24.202Z,30.33
2023-01-13T13:59:33.846Z,28.60
2023-01-13T14:02:38.957Z,27.87
2023-01-13T14:05:54.476Z,36.58
2023-01-13T14:08:58.196Z,40.05
2023-01-13T14:12:15.211Z,49.58
2023-01-13T14:15:33.203Z,40.03
2023-01-13T14:18:46.394Z,56.43
2023-01-13T14:21:51.840Z,44.90
2023-01-13T14:24:57.833Z,39.28
2023-01-13T14:28:24.913Z,40.03
2023-01-13T14:31:29.869Z,42.65
2023-01-13T14:34:34.504Z,41.67
2023-01-13T14:37:40.841Z,50.25
2023-01-13T14:40:46.585Z,37.78
2023-01-13T14:43:56.598Z,32.80
2023-01-13T14:47:04.424Z,30.85
2023-01-13T14:50:21.005Z,30.73
2023-01-13T14:53:40.890Z,36.00
2023-01-13T14:56:47.466Z,35.10
2023-01-13T15:00:00.167Z,53.22
2023-01-13T15:03:09.063Z,45.85
2023-01-13T15:06:27.830Z,52.70
2023-01-13T15:09:41.374Z,57.88
2023-01-13T15:12:44.939Z,55.95
2023-01-13T15:15:51.713Z,59.15
2023-01-13T15:18:56.141Z,61.53
2023-01-13T15:21:59.643Z,42.80
2023-01-13T15:25:03.148Z,44.42
2023-01-13T15:28:08.081Z,39.47
2023-01-13T15:31:11.804Z,34.72
2023-01-13T15:34:15.287Z,28.42
2023-01-13T15:37:19.741Z,26.03
2023-01-13T15:40:33.346Z,26.38
2023-01-13T15:43:55.041Z,28.58
2023-01-13T15:47:01.739Z,51.53
2023-01-13T15:50:05.530Z,53.67
2023-01-13T15:53:14.566Z,89.00
2023-01-13T15:56:26.783Z,94.78
2023-01-13T15:59:30.230Z,74.32
2023-01-13T16:02:33.783Z,58.42
2023-01-13T16:05:37.254Z,55.97
2023-01-13T16:08:40.756Z,49.37
2023-01-13T16:11:44.537Z,61.03
2023-01-13T16:14:48.135Z,70.93
2023-01-13T16:18:00.561Z,68.20
2023-01-13T16:21:04.163Z,71.93
2023-01-13T16:24:07.714Z,70.83
2023-01-13T16:27:25.513Z,77.38
2023-01-13T16:30:33.762Z,100.68
2023-01-13T16:33:37.523Z,95.82
2023-01-13T16:36:40.979Z,154.85
2023-01-13T16:39:44.525Z,164.47
2023-01-13T16:42:48.097Z,136.57
2023-01-13T16:45:51.707Z,127.10
2023-01-13T16:48:57.917Z,110.20
2023-01-13T16:52:01.483Z,62.85
2023-01-13T16:55:05.173Z,52.03
2023-01-13T16:58:17.585Z,45.92
2023-01-13T17:01:31.975Z,33.97
2023-01-13T17:04:35.539Z,30.50
2023-01-13T17:07:40.200Z,28.70
2023-01-13T17:10:47.980Z,40.23
2023-01-13T17:13:51.701Z,43.55
2023-01-13T17:16:57.231Z,53.55
2023-01-13T17:20:01.000Z,59.78
2023-01-13T17:23:04.552Z,37.47
2023-01-13T17:26:08.586Z,51.43
2023-01-13T17:29:17.779Z,61.40
2023-01-13T17:32:23.941Z,36.80
2023-01-13T17:35:27.642Z,27.83
2023-01-13T17:38:31.362Z,27.58
2023-01-13T17:41:34.867Z,29.30
2023-01-13T17:44:39.105Z,27.20
2023-01-13T17:47:42.567Z,35.90
2023-01-13T17:50:53.479Z,33.42
2023-01-13T17:53:57.116Z,37.38
2023-01-13T17:57:00.628Z,43.40
2023-01-13T18:00:05.735Z,32.85
2023-01-13T18:03:17.184Z,31.08
2023-01-13T18:06:23.462Z,28.10
2023-01-13T18:09:27.088Z,33.90
2023-01-13T18:12:30.509Z,29.97
2023-01-13T18:15:34.080Z,26.83
2023-01-13T18:18:39.451Z,28.08
2023-01-13T18:22:02.085Z,25.08
2023-01-13T18:25:24.881Z,27.98
2023-01-13T18:28:28.457Z,23.43
2023-01-13T18:31:32.468Z,35.85
2023-01-13T18:34:37.103Z,44.25
2023-01-13T18:37:42.482Z,40.83
2023-01-13T18:40:48.579Z,33.65
2023-01-13T18:43:52.411Z,29.37
2023-01-13T18:46:56.177Z,48.92
2023-01-13T18:49:59.983Z,53.03
2023-01-13T18:53:03.590Z,44.05
2023-01-13T18:56:14.255Z,52.38
2023-01-13T18:59:18.473Z,58.97
2023-01-13T19:02:23.608Z,55.03
2023-01-13T19:05:27.093Z,100.15
2023-01-13T19:08:33.198Z,82.28
2023-01-13T19:11:37.053Z,85.80
2023-01-13T19:14:42.454Z,77.57
2023-01-13T19:17:46.787Z,89.50
2023-01-13T19:20:53.654Z,77.95
2023-01-13T19:23:57.524Z,63.83
2023-01-13T19:27:01.274Z,72.80
2023-01-13T19:30:06.095Z,79.87
2023-01-13T19:33:10.867Z,96.75
2023-01-13T19:36:14.353Z,83.07
2023-01-13T19:39:18.025Z,82.35
2023-01-13T19:42:40.408Z,70.78
2023-01-13T19:45:45.013Z,78.83
2023-01-13T19:48:48.725Z,81.03
2023-01-13T19:51:52.463Z,71.50
2023-01-13T19:54:56.944Z,75.60
2023-01-13T19:58:00.972Z,72.72
2023-01-13T20:01:10.291Z,78.57
2023-01-13T20:04:14.623Z,77.13
2023-01-13T20:07:18.049Z,67.30
2023-01-13T20:10:25.058Z,58.08
2023-01-13T20:13:28.618Z,52.15
2023-01-13T20:16:33.892Z,47.13
2023-01-13T20:19:37.429Z,45.90
2023-01-13T20:22:41.024Z,44.38
2023-01-13T20:25:44.628Z,47.35
2023-01-13T20:28:48.884Z,48.85
2023-01-13T20:31:52.483Z,49.53
2023-01-13T20:34:56.090Z,50.58
2023-01-13T20:37:59.594Z,50.35
2023-01-13T20:41:25.781Z,48.45
2023-01-13T20:44:29.709Z,46.63
2023-01-13T20:47:33.306Z,50.60
2023-01-13T20:50:37.427Z,42.35
2023-01-13T20:53:41.770Z,40.47
2023-01-13T20:56:45.754Z,42.20
2023-01-13T20:59:49.244Z,36.40
2023-01-13T21:02:53.257Z,39.30
2023-01-13T21:05:58.685Z,38.90
2023-01-13T21:09:02.279Z,44.47
2023-01-13T21:12:25.218Z,39.65
2023-01-13T21:15:28.825Z,41.97
2023-01-13T21:18:50.893Z,38.23
2023-01-13T21:21:54.455Z,40.55
2023-01-13T21:24:58.702Z,37.60
2023-01-13T21:28:10.438Z,42.70
2023-01-13T21:31:14.003Z,34.42
2023-01-13T21:34:17.518Z,38.67
2023-01-13T21:37:21.069Z,35.35
2023-01-13T21:40:24.639Z,35.92
2023-01-13T21:43:47.202Z,34.10
2023-01-13T21:47:08.949Z,37.50
2023-01-13T21:50:15.577Z,36.03
2023-01-13T21:53:19.048Z,31.02
2023-01-13T21:56:23.180Z,35.83
2023-01-13T21:59:26.655Z,34.80
2023-01-13T22:02:32.231Z,38.55
2023-01-13T22:05:36.211Z,33.73
2023-01-13T22:08:39.668Z,32.25
2023-01-13T22:11:43.077Z,35.78
2023-01-13T22:14:47.250Z,36.13
2023-01-13T22:17:55.252Z,37.13
2023-01-13T22:21:01.763Z,35.67
2023-01-13T22:24:05.441Z,38.03
2023-01-13T22:27:12.788Z,33.67
2023-01-13T22:30:25.256Z,32.17
2023-01-13T22:33:28.706Z,39.80
2023-01-13T22:36:32.219Z,36.80
2023-01-13T22:39:36.522Z,35.25
2023-01-13T22:42:41.995Z,35.80
2023-01-13T22:45:45.505Z,48.28
2023-01-13T22:48:51.982Z,40.97
2023-01-13T22:51:55.458Z,42.07
2023-01-13T22:55:00.893Z,40.75
2023-01-13T22:58:04.426Z,39.67
2023-01-13T23:01:16.410Z,43.53
2023-01-13T23:04:20.073Z,60.45
2023-01-13T23:07:23.671Z,60.47
2023-01-13T23:10:28.271Z,62.08
2023-01-13T23:13:32.390Z,70.18
2023-01-13T23:16:38.409Z,42.33
2023-01-13T23:19:41.815Z,35.47
2023-01-13T23:22:45.354Z,35.17
2023-01-13T23:25:55.459Z,39.67
2023-01-13T23:29:04.578Z,39.38
2023-01-13T23:32:08.869Z,42.03
2023-01-13T23:35:12.450Z,37.60
2023-01-13T23:38:15.910Z,39.70
2023-01-13T23:41:22.152Z,38.50
2023-01-13T23:44:25.770Z,39.38
2023-01-13T23:47:29.429Z,40.72
2023-01-13T23:50:33.796Z,41.72
2023-01-13T23:53:40.514Z,38.87
2023-01-13T23:56:44.034Z,37.47
2023-01-13T23:59:47.504Z,37.63
